Terminal Aerodrome Forecast
Issued by NWS

Home | Current Version | Previous Version | Text Only | Print | Product List | Glossary On
Versions: 1 2 3 4 5 6 7 8 9 10 11 12 13 14 15 16
552
FTUS46 KMTR 050536
TAFMRY
TAF
KMRY 050536Z 0506/0606 21004KT P6SM SCT025 OVC035
     FM050900 VRB02KT P6SM OVC020
     FM051600 VRB03KT P6SM SCT020 BKN030
     FM051800 26008KT P6SM VCSH SCT035 BKN100
     FM060300 22005KT P6SM VCSH BKN035 OVC080=

USA.gov is the U.S. government's official web portal to all federal, state and local government web resources and services.